Time;durP1;ratioP1;P1;durP2;ratioP2;P2;SDS_P1;SDS_P2;PMS_P1;PMS_P2;Temp;Humidity;BMP_temperature;BMP_pressure;BME280_temperature;BME280_humidity;BME280_pressure;Samples;Min_cycle;Max_cycle;Signal;HPM_P1;HPM_P2
2023/06/30 00:00:54;;;;;;;7.53;3.78;;;;;;;-145.69;nan;52004.75;5075402;28;20220;-87
2023/06/30 00:03:22;;;;;;;11.50;4.65;;;;;;;-145.69;nan;51963.19;5074967;28;20195;-87
2023/06/30 00:05:49;;;;;;;7.95;4.00;;;;;;;-145.69;nan;51977.03;5075281;28;20653;-87
2023/06/30 00:08:17;;;;;;;12.90;4.20;;;;;;;-145.69;nan;51981.00;5075292;28;20214;-87
2023/06/30 00:10:44;;;;;;;10.27;4.07;;;;;;;-145.69;nan;52012.69;5075185;28;20226;-87
2023/06/30 00:13:10;;;;;;;13.57;4.43;;;;;;;-145.69;nan;52008.72;5075279;28;20200;-87
2023/06/30 00:15:37;;;;;;;11.45;3.67;;;;;;;-145.69;nan;51979.03;5075123;28;20207;-87
2023/06/30 00:18:03;;;;;;;9.85;4.50;;;;;;;-145.69;nan;52016.66;5074602;28;20516;-87
2023/06/30 00:20:30;;;;;;;11.40;4.50;;;;;;;-145.69;nan;51971.09;5074878;28;20203;-87
2023/06/30 00:22:56;;;;;;;13.57;4.85;;;;;;;-145.69;nan;52012.69;5075123;28;20213;-87
2023/06/30 00:25:24;;;;;;;11.13;4.68;;;;;;;-145.69;nan;52012.69;5074920;28;20199;-87
2023/06/30 00:27:51;;;;;;;10.98;4.78;;;;;;;-145.69;nan;52018.63;5074788;28;20198;-87
2023/06/30 00:30:17;;;;;;;12.77;5.07;;;;;;;-145.69;nan;52024.56;5074418;28;20242;-87
2023/06/30 00:32:44;;;;;;;11.98;5.10;;;;;;;-145.69;nan;52030.50;5073969;28;20214;-85
2023/06/30 00:35:10;;;;;;;11.38;5.07;;;;;;;-145.69;nan;51986.94;5074279;28;20202;-87
2023/06/30 00:37:37;;;;;;;12.48;5.40;;;;;;;-145.69;nan;52014.66;5074926;28;20604;-87
2023/06/30 00:40:04;;;;;;;12.18;4.65;;;;;;;-145.69;nan;51986.94;5074814;28;20641;-87
2023/06/30 00:42:32;;;;;;;8.95;4.55;;;;;;;-145.69;nan;51982.97;5074316;28;20207;-87
2023/06/30 00:44:59;;;;;;;16.98;5.57;;;;;;;-145.69;nan;52002.78;5074668;28;20210;-87
2023/06/30 00:47:26;;;;;;;11.23;5.18;;;;;;;-145.69;nan;52008.72;5074674;28;20207;-88
2023/06/30 00:49:53;;;;;;;9.75;5.13;;;;;;;-145.69;nan;52002.78;5074244;28;20720;-87
2023/06/30 00:52:20;;;;;;;10.43;5.28;;;;;;;-145.69;nan;52008.72;5073601;28;20217;-87
2023/06/30 00:54:47;;;;;;;15.43;5.40;;;;;;;-145.69;nan;52010.69;5074102;28;20206;-87
2023/06/30 00:57:13;;;;;;;12.10;6.00;;;;;;;-145.69;nan;52042.38;5074629;28;20203;-87
2023/06/30 00:59:41;;;;;;;12.32;5.82;;;;;;;-145.69;nan;52006.75;5074574;28;20210;-87
2023/06/30 01:02:13;;;;;;;16.83;6.55;;;;;;;-145.69;nan;52036.44;5074405;28;20209;-87
2023/06/30 01:04:48;;;;;;;11.20;5.70;;;;;;;-145.69;nan;51996.84;5074347;28;20218;-87
2023/06/30 01:07:22;;;;;;;11.27;5.88;;;;;;;-145.69;nan;51994.88;5074397;28;20209;-88
2023/06/30 01:09:53;;;;;;;12.18;5.80;;;;;;;-145.69;nan;52020.59;5074283;28;20205;-87
2023/06/30 01:12:20;;;;;;;14.00;5.63;;;;;;;-145.69;nan;52020.59;5074401;28;20194;-87
2023/06/30 01:14:49;;;;;;;12.52;6.00;;;;;;;-145.69;nan;52014.66;5074082;28;20203;-87
2023/06/30 01:17:18;;;;;;;15.98;6.40;;;;;;;-145.69;nan;52020.59;5074186;28;20207;-87
2023/06/30 01:19:45;;;;;;;12.48;6.22;;;;;;;-145.69;nan;52004.75;5074295;28;20207;-87
2023/06/30 01:22:19;;;;;;;14.98;6.97;;;;;;;-145.69;nan;51986.94;5074176;28;20256;-87
2023/06/30 01:24:48;;;;;;;16.58;7.32;;;;;;;-145.69;nan;52042.38;5074503;28;20225;-87
2023/06/30 01:27:15;;;;;;;11.85;6.00;;;;;;;-145.69;nan;52008.72;5074239;28;20202;-86
2023/06/30 01:29:42;;;;;;;10.85;5.95;;;;;;;-145.69;nan;52012.69;5073861;28;20597;-86
2023/06/30 01:32:16;;;;;;;12.52;6.40;;;;;;;-145.69;nan;52018.63;5074108;28;20226;-87
2023/06/30 01:34:43;;;;;;;13.57;6.43;;;;;;;-145.69;nan;52016.66;5074240;28;20197;-87
2023/06/30 01:37:09;;;;;;;15.60;6.70;;;;;;;-145.69;nan;52016.66;5074022;28;20214;-86
2023/06/30 01:39:36;;;;;;;15.60;6.30;;;;;;;-145.69;nan;52012.69;5073646;28;20685;-86
2023/06/30 01:42:03;;;;;;;12.23;5.80;;;;;;;-145.69;nan;52034.47;5073811;28;20202;-87
2023/06/30 01:44:30;;;;;;;10.50;5.93;;;;;;;-145.69;nan;52014.66;5074092;28;20215;-87
2023/06/30 01:46:56;;;;;;;13.73;6.73;;;;;;;-145.69;nan;51992.88;5073905;28;20446;-87
2023/06/30 01:49:24;;;;;;;11.00;6.13;;;;;;;-145.69;nan;52018.63;5073667;28;20246;-87
2023/06/30 01:51:51;;;;;;;16.05;7.28;;;;;;;-145.69;nan;51992.88;5072949;28;20261;-87
2023/06/30 01:54:17;;;;;;;14.40;6.90;;;;;;;-145.69;nan;52024.56;5076896;28;20210;-87
2023/06/30 01:56:49;;;;;;;15.05;7.13;;;;;;;-145.69;nan;51994.88;5078007;28;20657;-88
2023/06/30 01:59:15;;;;;;;14.88;6.88;;;;;;;-145.69;nan;52022.59;5077906;28;20284;-87
2023/06/30 02:01:42;;;;;;;14.23;7.30;;;;;;;-145.69;nan;52014.66;5077856;28;20207;-88
2023/06/30 02:04:09;;;;;;;16.40;7.43;;;;;;;-145.69;nan;52028.53;5077558;28;20209;-87
2023/06/30 02:06:37;;;;;;;16.13;7.57;;;;;;;-145.69;nan;52020.59;5077634;28;20199;-87
2023/06/30 02:09:04;;;;;;;15.68;7.82;;;;;;;-145.69;nan;52034.47;5077828;28;20206;-87
2023/06/30 02:11:30;;;;;;;15.10;7.75;;;;;;;-145.69;nan;51994.88;5076266;28;20233;-86
2023/06/30 02:13:56;;;;;;;19.02;8.40;;;;;;;-145.69;nan;52014.66;5077601;28;20198;-87
2023/06/30 02:16:23;;;;;;;15.93;7.53;;;;;;;-145.69;nan;52022.59;5077752;28;20203;-87
2023/06/30 02:18:54;;;;;;;15.10;8.00;;;;;;;-145.69;nan;52038.44;5077363;28;20208;-87
2023/06/30 02:21:21;;;;;;;15.98;8.20;;;;;;;-145.69;nan;52036.44;5077313;28;20205;-86
2023/06/30 02:23:49;;;;;;;15.98;7.35;;;;;;;-145.69;nan;52012.69;5077307;28;20740;-86
2023/06/30 02:26:16;;;;;;;17.25;7.50;;;;;;;-145.69;nan;52034.47;5077187;28;20195;-87
2023/06/30 02:28:43;;;;;;;13.07;6.30;;;;;;;-145.69;nan;52016.66;5077324;28;20211;-87
2023/06/30 02:31:09;;;;;;;16.45;7.70;;;;;;;-145.69;nan;52028.53;5076932;28;20223;-87
2023/06/30 02:33:36;;;;;;;18.85;8.07;;;;;;;-145.69;nan;52024.56;5077115;28;20205;-87
2023/06/30 02:36:03;;;;;;;13.75;7.63;;;;;;;-145.69;nan;52034.47;5076956;28;20207;-87
2023/06/30 02:38:30;;;;;;;15.18;7.22;;;;;;;-145.69;nan;52030.50;5076358;28;20554;-87
2023/06/30 02:40:58;;;;;;;15.85;8.23;;;;;;;-145.69;nan;52028.53;5077050;28;20210;-87
2023/06/30 02:43:24;;;;;;;13.80;7.43;;;;;;;-145.69;nan;52028.53;5077259;28;20209;-87
2023/06/30 02:45:51;;;;;;;13.23;7.53;;;;;;;-145.69;nan;51971.09;5076961;28;20207;-87
2023/06/30 02:48:18;;;;;;;15.98;7.35;;;;;;;-145.69;nan;52052.28;5076480;28;20195;-87
2023/06/30 02:50:44;;;;;;;14.68;7.95;;;;;;;-145.69;nan;52038.44;5076580;28;20245;-87
2023/06/30 02:53:11;;;;;;;13.10;7.47;;;;;;;-145.69;nan;52036.44;5076736;28;20213;-87
2023/06/30 02:55:37;;;;;;;15.07;7.90;;;;;;;-145.69;nan;52050.31;5097193;28;20238;-88
2023/06/30 02:58:05;;;;;;;14.60;8.00;;;;;;;-145.69;nan;52040.41;5087040;28;20222;-87
2023/06/30 03:00:31;;;;;;;15.90;7.47;;;;;;;-145.69;nan;52050.31;5076601;28;20546;-87
2023/06/30 03:02:58;;;;;;;14.18;7.35;;;;;;;-145.69;nan;52024.56;5076856;28;20203;-87
2023/06/30 03:05:24;;;;;;;17.92;7.93;;;;;;;-145.69;nan;52056.25;5076254;28;20203;-87
2023/06/30 03:07:51;;;;;;;18.63;8.90;;;;;;;-145.69;nan;52004.75;5075653;28;20441;-87
2023/06/30 03:10:18;;;;;;;13.80;8.13;;;;;;;-145.69;nan;52050.31;5076439;28;20206;-87
2023/06/30 03:12:44;;;;;;;20.55;8.52;;;;;;;-145.69;nan;52068.13;5075245;28;20662;-88
2023/06/30 03:15:12;;;;;;;20.17;8.52;;;;;;;-145.69;nan;52014.66;5076516;28;20203;-87
2023/06/30 03:17:39;;;;;;;17.33;7.78;;;;;;;-145.69;nan;52040.41;5076254;28;20203;-88
2023/06/30 03:20:12;;;;;;;18.15;9.13;;;;;;;-145.69;nan;52052.28;5076231;28;20205;-87
2023/06/30 03:22:38;;;;;;;19.15;9.10;;;;;;;-145.69;nan;52052.28;5076201;28;20562;-89
2023/06/30 03:25:06;;;;;;;29.33;10.30;;;;;;;-145.69;nan;52052.28;5075335;28;20209;-89
2023/06/30 03:27:33;;;;;;;22.63;9.93;;;;;;;-145.69;nan;52030.50;5076256;28;20206;-88
2023/06/30 03:30:00;;;;;;;22.42;11.35;;;;;;;-145.69;nan;52052.28;5076021;28;20202;-88
2023/06/30 03:32:27;;;;;;;23.23;10.27;;;;;;;-145.69;nan;52052.28;5075118;28;20242;-88
2023/06/30 03:34:54;;;;;;;24.88;10.80;;;;;;;-145.69;nan;52095.84;5076104;28;20654;-88
2023/06/30 03:37:20;;;;;;;26.38;12.38;;;;;;;-145.69;nan;52091.88;5074944;28;20809;-88
2023/06/30 03:39:47;;;;;;;21.60;11.13;;;;;;;-145.69;nan;52064.16;5075407;28;20203;-88
2023/06/30 03:42:13;;;;;;;25.30;11.77;;;;;;;-145.69;nan;52056.25;5075557;28;20289;-87
2023/06/30 03:44:40;;;;;;;24.08;11.07;;;;;;;-145.69;nan;52044.38;5075964;28;20202;-87
2023/06/30 03:47:06;;;;;;;25.33;12.13;;;;;;;-145.69;nan;52062.19;5075486;28;20442;-87
2023/06/30 03:49:34;;;;;;;18.80;10.70;;;;;;;-145.69;nan;52052.28;5075655;28;20239;-88
2023/06/30 03:52:01;;;;;;;22.50;10.68;;;;;;;-145.69;nan;52078.03;5075683;28;20233;-89
2023/06/30 03:54:27;;;;;;;24.63;11.52;;;;;;;-145.69;nan;52062.19;5075809;28;20199;-88
2023/06/30 03:56:54;;;;;;;24.73;12.57;;;;;;;-145.69;nan;52083.97;5075653;28;20207;-89
2023/06/30 03:59:20;;;;;;;21.33;10.52;;;;;;;-145.69;nan;52066.16;5075476;28;20225;-89
2023/06/30 04:01:47;;;;;;;22.23;10.88;;;;;;;-145.69;nan;52080.00;5075674;28;20199;-90
2023/06/30 04:04:13;;;;;;;22.30;11.13;;;;;;;-145.69;nan;52054.25;5075543;28;20206;-90
2023/06/30 04:06:42;;;;;;;18.83;10.57;;;;;;;-145.69;nan;52060.22;5075480;28;20209;-88
2023/06/30 04:09:08;;;;;;;24.33;10.77;;;;;;;-145.69;nan;52052.28;5075432;28;20293;-90
2023/06/30 04:11:35;;;;;;;20.60;10.52;;;;;;;-145.69;nan;52044.38;5075424;28;20254;-89
2023/06/30 04:14:02;;;;;;;21.42;9.48;;;;;;;-145.69;nan;52068.13;5075128;28;20205;-89
2023/06/30 04:16:28;;;;;;;22.40;10.20;;;;;;;-145.69;nan;52091.88;5074702;28;20203;-89
2023/06/30 04:18:55;;;;;;;19.25;9.43;;;;;;;-145.69;nan;52099.81;5074036;28;20660;-89
2023/06/30 04:21:22;;;;;;;19.38;9.40;;;;;;;-145.69;nan;52087.94;5075320;28;20298;-89
2023/06/30 04:23:49;;;;;;;27.80;9.90;;;;;;;-145.69;nan;52097.84;5075226;28;20201;-90
2023/06/30 04:26:17;;;;;;;20.13;10.40;;;;;;;-145.69;nan;52097.84;5074994;28;20210;-89
2023/06/30 04:28:43;;;;;;;20.45;10.18;;;;;;;-145.69;nan;52097.84;5090736;28;20207;-89
2023/06/30 04:31:10;;;;;;;22.05;10.50;;;;;;;-145.69;nan;52107.72;5075038;28;20627;-90
2023/06/30 04:33:36;;;;;;;21.70;10.52;;;;;;;-145.69;nan;52091.88;5074965;28;20198;-89
2023/06/30 04:36:03;;;;;;;21.58;10.32;;;;;;;-145.69;nan;52068.13;5073741;28;20241;-89
2023/06/30 04:38:30;;;;;;;20.35;9.95;;;;;;;-145.69;nan;52107.72;5074916;28;20206;-90
2023/06/30 04:40:58;;;;;;;22.48;10.23;;;;;;;-145.69;nan;52083.97;5074758;28;20238;-89
2023/06/30 04:43:24;;;;;;;21.33;10.32;;;;;;;-145.69;nan;52070.09;5074890;28;20203;-89
2023/06/30 04:45:51;;;;;;;20.33;9.80;;;;;;;-145.69;nan;52119.63;5074645;28;20209;-90
2023/06/30 04:48:17;;;;;;;17.00;9.75;;;;;;;-145.69;nan;52087.94;5074788;28;20202;-90
2023/06/30 04:50:44;;;;;;;18.75;9.27;;;;;;;-145.69;nan;52091.88;5074284;28;20239;-89
2023/06/30 04:53:10;;;;;;;16.75;8.50;;;;;;;-145.69;nan;52097.84;5074728;28;20229;-89
2023/06/30 04:55:37;;;;;;;15.20;8.55;;;;;;;-145.69;nan;52072.09;5074342;28;20604;-90
2023/06/30 04:58:05;;;;;;;17.98;9.40;;;;;;;-145.69;nan;52091.88;5074617;28;20198;-89
2023/06/30 05:00:32;;;;;;;19.02;10.05;;;;;;;-145.69;nan;52060.22;5074454;28;20203;-89
2023/06/30 05:02:58;;;;;;;19.83;10.00;;;;;;;-145.69;nan;52087.94;5074519;28;20233;-89
2023/06/30 05:05:25;;;;;;;16.55;8.85;;;;;;;-145.69;nan;52103.78;5074202;28;20201;-88
2023/06/30 05:07:51;;;;;;;18.67;9.23;;;;;;;-145.69;nan;52095.84;5073379;28;20203;-88
2023/06/30 05:10:18;;;;;;;17.38;9.02;;;;;;;-145.69;nan;52099.81;5074214;28;20206;-89
2023/06/30 05:12:44;;;;;;;16.35;9.25;;;;;;;-145.69;nan;52099.81;5074388;28;20222;-88
2023/06/30 05:15:12;;;;;;;21.10;9.82;;;;;;;-145.69;nan;52083.97;5074553;28;20199;-88
2023/06/30 05:17:39;;;;;;;18.02;9.73;;;;;;;-145.69;nan;52099.81;5074272;28;20202;-89
2023/06/30 05:20:08;;;;;;;19.00;10.30;;;;;;;-145.69;nan;52076.03;5074161;28;20194;-88
2023/06/30 05:22:34;;;;;;;16.95;9.27;;;;;;;-145.69;nan;52082.00;5073894;28;20285;-89
2023/06/30 05:25:01;;;;;;;22.25;10.05;;;;;;;-145.69;nan;52099.81;5074409;28;20203;-89
2023/06/30 05:27:27;;;;;;;18.52;9.13;;;;;;;-145.69;nan;52097.84;5074255;28;20561;-89
2023/06/30 05:29:54;;;;;;;19.30;9.32;;;;;;;-145.69;nan;52078.03;5074066;28;20542;-89
2023/06/30 05:32:22;;;;;;;18.52;9.52;;;;;;;-145.69;nan;52095.84;5074130;28;20238;-89
2023/06/30 05:34:50;;;;;;;17.65;9.15;;;;;;;-145.69;nan;52115.66;5074086;28;20660;-88
2023/06/30 05:37:16;;;;;;;19.65;10.25;;;;;;;-145.69;nan;52127.53;5074068;28;20209;-89
2023/06/30 05:39:43;;;;;;;16.73;9.25;;;;;;;-145.69;nan;52111.69;5074251;28;20229;-88
2023/06/30 05:42:09;;;;;;;16.42;9.07;;;;;;;-145.69;nan;52097.84;5074001;28;20194;-89
2023/06/30 05:44:36;;;;;;;18.92;9.05;;;;;;;-145.69;nan;52137.44;5074044;28;20206;-89
2023/06/30 05:47:02;;;;;;;17.95;8.27;;;;;;;-145.69;nan;52095.84;5074034;28;20206;-88
2023/06/30 05:49:30;;;;;;;17.67;8.85;;;;;;;-145.69;nan;52099.81;5073755;28;20688;-90
2023/06/30 05:51:57;;;;;;;19.83;9.45;;;;;;;-145.69;nan;52119.63;5073799;28;20226;-90
2023/06/30 05:54:24;;;;;;;15.48;8.73;;;;;;;-145.69;nan;52089.91;5074023;28;20704;-90
2023/06/30 05:56:50;;;;;;;18.25;9.20;;;;;;;-145.69;nan;52117.63;5073894;28;20535;-90
2023/06/30 05:59:17;;;;;;;20.17;9.90;;;;;;;-145.69;nan;52127.53;5073916;28;20201;-90
2023/06/30 06:01:43;;;;;;;15.60;9.20;;;;;;;-145.69;nan;52105.75;5052481;28;20199;-90
2023/06/30 06:04:11;;;;;;;19.25;9.27;;;;;;;-145.69;nan;52109.72;5067047;28;20199;-90
2023/06/30 06:06:39;;;;;;;20.50;9.30;;;;;;;-145.69;nan;52139.41;5072865;28;20191;-90
2023/06/30 06:09:06;;;;;;;19.67;9.52;;;;;;;-145.69;nan;52119.63;5056949;28;20202;-91
2023/06/30 06:11:33;;;;;;;20.45;9.48;;;;;;;-145.69;nan;52095.84;5073737;28;20234;-92
2023/06/30 06:13:59;;;;;;;16.98;9.07;;;;;;;-145.69;nan;52097.84;5073542;28;20210;-90
2023/06/30 06:16:26;;;;;;;15.45;8.80;;;;;;;-145.69;nan;52113.66;5073481;28;20202;-90
2023/06/30 06:18:52;;;;;;;16.98;8.77;;;;;;;-145.69;nan;52117.63;5073451;28;20203;-90
2023/06/30 06:21:18;;;;;;;15.05;8.73;;;;;;;-145.69;nan;52115.66;5073620;28;20210;-90
2023/06/30 06:23:46;;;;;;;20.30;9.80;;;;;;;-145.69;nan;52093.88;5073656;28;20206;-90
2023/06/30 06:26:13;;;;;;;19.35;9.40;;;;;;;-145.69;nan;52087.94;5073585;28;20203;-90
2023/06/30 06:28:39;;;;;;;20.15;10.63;;;;;;;-145.69;nan;52135.47;5072357;28;20253;-90
2023/06/30 06:31:06;;;;;;;19.15;9.88;;;;;;;-145.69;nan;52103.78;5073858;28;20206;-90
2023/06/30 06:33:32;;;;;;;20.90;10.02;;;;;;;-145.69;nan;52099.81;5073346;28;20238;-90
2023/06/30 06:35:58;;;;;;;20.15;9.80;;;;;;;-145.69;nan;52099.81;5073678;28;20206;-90
2023/06/30 06:38:25;;;;;;;15.88;9.25;;;;;;;-145.69;nan;52115.66;5073274;28;20681;-91
2023/06/30 06:40:53;;;;;;;19.25;9.48;;;;;;;-145.69;nan;52113.66;5077131;28;20206;-91
2023/06/30 06:43:24;;;;;;;19.80;9.70;;;;;;;-145.69;nan;52091.88;5076000;28;20235;-90
2023/06/30 06:45:50;;;;;;;19.20;9.50;;;;;;;-145.69;nan;52127.53;5075877;28;20654;-91
2023/06/30 06:48:22;;;;;;;18.25;9.25;;;;;;;-145.69;nan;52113.66;5076625;28;20202;-91
2023/06/30 06:50:51;;;;;;;18.17;9.63;;;;;;;-145.69;nan;52097.84;5076647;28;20233;-90
2023/06/30 06:53:20;;;;;;;17.42;9.18;;;;;;;-145.69;nan;52060.22;5076739;28;20226;-90
2023/06/30 06:55:48;;;;;;;20.33;9.85;;;;;;;-145.69;nan;52087.94;5075661;28;20590;-90
2023/06/30 06:58:16;;;;;;;17.80;9.43;;;;;;;-145.69;nan;52091.88;5076890;28;20199;-90
2023/06/30 07:00:44;;;;;;;18.08;9.80;;;;;;;-145.69;nan;52085.94;5075746;28;20206;-91
2023/06/30 07:03:10;;;;;;;16.55;9.15;;;;;;;-145.69;nan;52099.81;5076752;28;20203;-90
2023/06/30 07:05:39;;;;;;;20.80;9.55;;;;;;;-145.69;nan;52091.88;5076869;28;20207;-90
2023/06/30 07:08:05;;;;;;;17.55;9.32;;;;;;;-145.69;nan;52093.88;5076711;28;20205;-91
2023/06/30 07:10:32;;;;;;;16.33;9.23;;;;;;;-145.69;nan;52048.31;5076734;28;20554;-92
2023/06/30 07:12:59;;;;;;;19.45;9.95;;;;;;;-145.69;nan;52085.94;5076167;28;20234;-91
2023/06/30 07:15:27;;;;;;;16.83;9.70;;;;;;;-145.69;nan;52099.81;5076550;28;20198;-91
2023/06/30 07:17:53;;;;;;;15.95;8.85;;;;;;;-145.69;nan;52099.81;5076470;28;20203;-91
2023/06/30 07:20:20;;;;;;;20.58;9.80;;;;;;;-145.69;nan;52107.72;5076229;28;20210;-91
2023/06/30 07:22:47;;;;;;;20.38;10.15;;;;;;;-145.69;nan;52097.84;5056673;28;20200;-91
2023/06/30 07:25:14;;;;;;;18.38;9.27;;;;;;;-145.69;nan;52121.59;5056421;28;20683;-91
2023/06/30 07:27:40;;;;;;;18.48;9.45;;;;;;;-145.69;nan;52068.13;5056294;28;20203;-90
2023/06/30 07:30:07;;;;;;;19.88;9.77;;;;;;;-145.69;nan;52087.94;5056134;28;20215;-91
2023/06/30 07:32:35;;;;;;;16.83;8.88;;;;;;;-145.69;nan;52089.91;5055935;28;20242;-90
2023/06/30 07:35:02;;;;;;;19.92;9.48;;;;;;;-145.69;nan;52091.88;5056025;28;20206;-91
2023/06/30 07:37:29;;;;;;;20.45;10.23;;;;;;;-145.69;nan;52107.72;5055916;28;20199;-91
2023/06/30 07:39:55;;;;;;;22.48;10.63;;;;;;;-145.69;nan;52107.72;5055784;28;20199;-91
2023/06/30 07:42:22;;;;;;;24.45;10.55;;;;;;;-145.69;nan;52115.66;5074292;28;20203;-92
2023/06/30 07:44:49;;;;;;;20.38;9.25;;;;;;;-145.69;nan;52093.88;5075675;28;20206;-92
2023/06/30 07:47:15;;;;;;;22.08;9.88;;;;;;;-145.69;nan;52117.63;5075369;28;20554;-92
2023/06/30 07:49:43;;;;;;;20.27;10.23;;;;;;;-145.69;nan;52109.72;5075220;28;20249;-92
2023/06/30 07:52:10;;;;;;;19.23;9.90;;;;;;;-145.69;nan;52082.00;5073458;28;20245;-92
2023/06/30 07:54:36;;;;;;;21.58;10.32;;;;;;;-145.69;nan;52068.13;5075245;28;20199;-92
2023/06/30 07:57:03;;;;;;;22.48;10.80;;;;;;;-145.69;nan;52101.78;5075391;28;20206;-92
2023/06/30 07:59:30;;;;;;;20.75;9.82;;;;;;;-145.69;nan;52097.84;5074298;28;20294;-92
2023/06/30 08:01:56;;;;;;;24.23;10.20;;;;;;;-145.69;nan;52066.16;5075337;28;20199;-92
2023/06/30 08:04:23;;;;;;;19.55;10.38;;;;;;;-145.69;nan;52070.09;5075531;28;20202;-92
2023/06/30 08:06:50;;;;;;;23.17;10.02;;;;;;;-145.69;nan;52048.31;5075761;28;20207;-92
2023/06/30 08:09:17;;;;;;;19.80;9.40;;;;;;;-145.69;nan;52048.31;5075211;28;20202;-93
2023/06/30 08:11:44;;;;;;;20.27;9.88;;;;;;;-145.69;nan;52070.09;5075453;28;20210;-93
2023/06/30 08:14:10;;;;;;;19.80;10.63;;;;;;;-145.69;nan;52036.44;5075217;28;20628;-92
2023/06/30 08:16:37;;;;;;;98.75;48.10;;;;;;;-145.69;nan;52082.00;5075690;28;20199;-92
2023/06/30 08:19:03;;;;;;;165.18;79.07;;;;;;;-145.69;nan;52064.16;5075396;28;20195;-91
2023/06/30 08:21:30;;;;;;;109.93;52.30;;;;;;;-145.69;nan;52066.16;5075332;28;20282;-90
2023/06/30 08:23:58;;;;;;;50.83;25.45;;;;;;;-145.69;nan;52042.38;5075595;28;20206;-92
2023/06/30 08:26:24;;;;;;;45.03;22.63;;;;;;;-145.69;nan;52099.81;5075457;28;20296;-92
2023/06/30 08:28:51;;;;;;;37.30;18.38;;;;;;;-145.69;nan;52101.78;5075185;28;20659;-91
2023/06/30 08:31:18;;;;;;;28.95;16.15;;;;;;;-145.69;nan;52066.16;5075211;28;20597;-92
2023/06/30 08:33:45;;;;;;;32.33;16.42;;;;;;;-145.69;nan;52111.69;5074930;28;20592;-92
2023/06/30 08:36:11;;;;;;;30.60;15.85;;;;;;;-145.69;nan;52091.88;5075319;28;20207;-92
2023/06/30 08:38:38;;;;;;;29.02;14.68;;;;;;;-145.69;nan;52107.72;5075040;28;20210;-92
2023/06/30 08:41:06;;;;;;;34.70;18.20;;;;;;;-145.69;nan;52082.00;5075484;28;20207;-91
2023/06/30 08:43:33;;;;;;;21.20;11.68;;;;;;;-145.69;nan;52097.84;5075156;28;20203;-92
2023/06/30 08:46:02;;;;;;;18.25;9.63;;;;;;;-145.69;nan;52078.03;5075320;28;20638;-89
2023/06/30 08:48:30;;;;;;;19.45;9.52;;;;;;;-145.69;nan;52115.66;5074838;28;20202;-91
2023/06/30 08:50:59;;;;;;;12.90;6.93;;;;;;;-145.69;nan;52068.13;5074300;28;20241;-91
2023/06/30 08:53:27;;;;;;;27.02;15.35;;;;;;;-145.69;nan;52091.88;5074265;28;20585;-88
2023/06/30 08:55:55;;;;;;;12.32;7.40;;;;;;;-145.69;nan;52087.94;5074089;28;20210;-91
2023/06/30 08:58:23;;;;;;;12.38;7.18;;;;;;;-145.69;nan;52091.88;5074161;28;20648;-92
2023/06/30 09:00:50;;;;;;;17.08;10.85;;;;;;;-145.69;nan;52076.03;5074310;28;20615;-90
2023/06/30 09:03:17;;;;;;;13.52;7.50;;;;;;;-145.69;nan;52082.00;5074451;28;20217;-92
2023/06/30 09:05:46;;;;;;;13.05;7.65;;;;;;;-145.69;nan;52068.13;5074365;28;20217;-93
2023/06/30 09:08:19;;;;;;;14.68;8.63;;;;;;;-145.69;nan;52064.16;5074469;28;20205;-89
2023/06/30 09:10:48;;;;;;;16.90;9.80;;;;;;;-145.69;nan;52068.13;5072582;28;20457;-93
2023/06/30 09:13:18;;;;;;;13.02;8.18;;;;;;;-145.69;nan;52046.34;5073940;28;20237;-94
2023/06/30 09:15:47;;;;;;;15.38;7.55;;;;;;;-145.69;nan;52044.38;5075439;28;20194;-93
2023/06/30 09:18:14;;;;;;;16.92;7.80;;;;;;;-145.69;nan;52042.38;5074595;28;20263;-93
2023/06/30 09:20:40;;;;;;;19.83;9.90;;;;;;;-145.69;nan;52056.25;5073830;28;20195;-91
2023/06/30 09:23:08;;;;;;;18.20;9.05;;;;;;;-145.69;nan;52083.97;5073914;28;20195;-92
2023/06/30 09:25:39;;;;;;;17.70;9.23;;;;;;;-145.69;nan;52068.13;5073573;28;20282;-92
2023/06/30 09:28:10;;;;;;;17.90;8.95;;;;;;;-145.69;nan;52052.28;5074280;28;20202;-93
2023/06/30 09:30:41;;;;;;;18.80;8.90;;;;;;;-145.69;nan;52054.25;5073147;28;20254;-92
2023/06/30 09:33:09;;;;;;;20.85;9.30;;;;;;;-145.69;nan;52070.09;5072280;28;20214;-93
2023/06/30 09:35:39;;;;;;;18.90;9.32;;;;;;;-145.69;nan;52040.41;5074168;28;20210;-92
2023/06/30 09:38:10;;;;;;;17.25;9.60;;;;;;;-145.69;nan;52078.03;5073739;28;20294;-92
2023/06/30 09:40:37;;;;;;;21.83;11.73;;;;;;;-145.69;nan;52052.28;5074233;28;20491;-92
2023/06/30 09:43:06;;;;;;;21.25;11.57;;;;;;;-145.69;nan;52072.09;5074377;28;20202;-92
2023/06/30 09:45:32;;;;;;;21.42;11.75;;;;;;;-145.69;nan;52056.25;5074179;28;20221;-92
2023/06/30 09:47:59;;;;;;;19.05;10.02;;;;;;;-145.69;nan;52054.25;5073836;28;20194;-94
2023/06/30 09:50:30;;;;;;;22.05;11.63;;;;;;;-145.69;nan;52070.09;5073439;28;20963;-92
2023/06/30 09:52:57;;;;;;;20.10;8.75;;;;;;;-145.69;nan;52040.41;5074087;28;20711;-91
2023/06/30 09:55:24;;;;;;;16.73;8.73;;;;;;;-145.69;nan;52044.38;5074119;28;20198;-92
2023/06/30 09:57:53;;;;;;;16.88;8.70;;;;;;;-145.69;nan;52012.69;5073663;28;20234;-92
2023/06/30 10:00:20;;;;;;;13.40;7.38;;;;;;;-145.69;nan;51990.91;5053819;28;20195;-92
2023/06/30 10:03:02;;;;;;;13.73;7.55;;;;;;;-145.69;nan;51996.84;5066830;28;20210;-92
2023/06/30 10:05:31;;;;;;;14.30;7.35;;;;;;;-145.69;nan;52002.78;5073350;28;20264;-91
2023/06/30 10:07:58;;;;;;;14.30;6.93;;;;;;;-145.69;nan;52028.53;5073563;28;20229;-92
2023/06/30 10:10:29;;;;;;;13.63;7.25;;;;;;;-145.69;nan;52004.75;5073262;28;20233;-92
2023/06/30 10:12:56;;;;;;;12.27;6.60;;;;;;;-145.69;nan;51998.81;5073361;28;20593;-92
2023/06/30 10:15:26;;;;;;;11.02;6.35;;;;;;;-145.69;nan;51998.81;5076775;28;20245;-91
2023/06/30 10:17:54;;;;;;;11.98;6.45;;;;;;;-145.69;nan;51994.88;5064919;28;20285;-88
2023/06/30 10:20:21;;;;;;;12.07;6.72;;;;;;;-145.69;nan;52022.59;5076854;28;20199;-87
2023/06/30 10:23:04;;;;;;;11.25;6.50;;;;;;;-145.69;nan;52010.69;5076763;28;20198;-88
2023/06/30 10:25:32;;;;;;;12.77;7.10;;;;;;;-145.69;nan;52020.59;5076692;28;20191;-88
2023/06/30 10:27:59;;;;;;;15.75;7.45;;;;;;;-145.69;nan;52044.38;5076585;28;20657;-89
2023/06/30 10:30:26;;;;;;;13.75;7.03;;;;;;;-145.69;nan;52052.28;5077526;28;20202;-89
2023/06/30 10:32:55;;;;;;;16.25;7.22;;;;;;;-145.69;nan;52054.25;5077119;28;20228;-89
2023/06/30 10:35:22;;;;;;;13.45;7.40;;;;;;;-145.69;nan;52048.31;5077474;28;20206;-87
2023/06/30 10:37:50;;;;;;;11.52;6.38;;;;;;;-145.69;nan;52042.38;5076958;28;20237;-91
2023/06/30 10:40:27;;;;;;;12.32;7.32;;;;;;;-145.69;nan;52056.25;5076427;28;20225;-86
2023/06/30 10:42:57;;;;;;;12.40;6.70;;;;;;;-145.69;nan;52044.38;5070475;28;20647;-86
2023/06/30 10:45:29;;;;;;;13.85;7.45;;;;;;;-145.69;nan;52036.44;5076029;28;20286;-86
2023/06/30 10:47:55;;;;;;;14.75;7.65;;;;;;;-145.69;nan;52016.66;5076017;28;20203;-86
2023/06/30 10:50:23;;;;;;;14.05;7.35;;;;;;;-145.69;nan;52022.59;5075351;28;20269;-85
2023/06/30 10:52:52;;;;;;;14.30;7.30;;;;;;;-145.69;nan;52008.72;5075328;28;20226;-85
2023/06/30 10:55:23;;;;;;;23.52;8.05;;;;;;;-145.69;nan;52012.69;5075800;28;20202;-84
2023/06/30 10:57:51;;;;;;;14.07;8.00;;;;;;;-145.69;nan;52018.63;5075978;28;20210;-85
2023/06/30 11:00:24;;;;;;;13.82;8.10;;;;;;;-145.69;nan;52008.72;5075722;28;20206;-86
2023/06/30 11:02:55;;;;;;;12.32;7.50;;;;;;;-145.69;nan;52032.47;5075963;28;20209;-86
2023/06/30 11:05:23;;;;;;;15.40;7.53;;;;;;;-145.69;nan;51992.88;5075840;28;20454;-86
2023/06/30 11:07:53;;;;;;;12.95;7.22;;;;;;;-145.69;nan;52012.69;5075565;28;20290;-86
2023/06/30 11:10:27;;;;;;;14.43;7.88;;;;;;;-145.69;nan;52050.31;5075243;28;20199;-85
2023/06/30 11:12:55;;;;;;;15.43;7.65;;;;;;;-145.69;nan;52022.59;5075332;28;20657;-85
2023/06/30 11:15:29;;;;;;;14.98;7.93;;;;;;;-145.69;nan;52044.38;5075684;28;20595;-86
2023/06/30 11:18:00;;;;;;;15.57;9.10;;;;;;;-145.69;nan;52048.31;5075266;28;20207;-85
2023/06/30 11:20:29;;;;;;;13.48;7.65;;;;;;;-145.69;nan;52028.53;5074869;28;20195;-85
2023/06/30 11:23:00;;;;;;;14.95;8.02;;;;;;;-145.69;nan;52076.03;5075451;28;20560;-86
2023/06/30 11:25:28;;;;;;;17.70;9.02;;;;;;;-145.69;nan;52054.25;5075134;28;20226;-87